Stations météo

réclame
Mon MeteoGroup
Ripoll, Espagne (8118): Température de l'air & dewpoint: 15.01.2018 13:00:00 - 21.01.2018 13:00:00 (CET)Ripoll, Espagne (8118): Vitesse du vent & gusts: 15.01.2018 13:00:00 - 21.01.2018 13:00:00 (CET)Ripoll, Espagne (8118): Direction du vent: 15.01.2018 13:00:00 - 21.01.2018 13:00:00 (CET)Ripoll, Espagne (8118): Quantités de précipitations: 15.01.2018 13:00:00 - 21.01.2018 13:00:00 (CET)
Date & Time tt [°C] td [°C] ff [km/h] ff [knt] fx [km/h] fx [knt] dd rr [mm]
21.01.2018 13:00:00 12,1 8,4 5 3 17 9 NNW -
21.01.2018 12:00:00 10,1 9,0 5 3 13 7 NE 0,0
21.01.2018 11:00:00 6,5 6,1 3 2 7 4 SSE 0,0
21.01.2018 10:00:00 5,3 4,8 5 3 12 7 S 0,0
21.01.2018 09:00:00 4,5 4,1 5 3 10 5 SE 0,0
21.01.2018 08:00:00 4,6 3,9 1 1 6 3 SSE 0,1
21.01.2018 07:00:00 4,3 3,6 1 1 6 3 NNW -
21.01.2018 06:00:00 4,1 3,0 0 0 5 3 NNW 0,0
21.01.2018 05:00:00 4,5 3,2 1 0 14 7 SE 0,0
21.01.2018 04:00:00 4,7 3,2 3 2 20 11 SSW 0,0
21.01.2018 03:00:00 4,5 3,0 2 1 15 8 SW 0,0
21.01.2018 02:00:00 4,6 3,0 1 1 11 6 S 0,0
21.01.2018 01:00:00 - - - - - - - -
21.01.2018 00:00:00 5,0 3,2 1 1 8 4 N 0,0
20.01.2018 23:00:00 5,1 3,2 1 1 8 4 NNW 0,0
20.01.2018 22:00:00 5,1 3,2 2 1 10 5 NNW 0,0
20.01.2018 21:00:00 5,1 3,0 1 1 6 4 NE 0,0
20.01.2018 20:00:00 5,4 2,9 1 0 7 4 ENE 0,0
20.01.2018 19:00:00 6,2 2,7 1 0 15 8 NW -
20.01.2018 18:00:00 7,4 3,0 5 3 16 9 S 0,0
20.01.2018 17:00:00 7,7 3,0 1 1 18 10 S 0,0
20.01.2018 16:00:00 8,0 3,0 7 4 19 11 SSE 0,0
20.01.2018 15:00:00 7,4 2,3 10 6 28 15 SSE 0,0
20.01.2018 14:00:00 7,6 2,7 11 6 25 13 SSE 0,0
20.01.2018 13:00:00 6,5 3,2 13 7 23 12 SSE -
20.01.2018 12:00:00 5,5 3,2 7 4 16 9 S 0,0
20.01.2018 11:00:00 3,9 1,9 1 0 3 2 S 0,0
20.01.2018 10:00:00 2,6 1,1 1 0 9 5 NE 0,0
20.01.2018 09:00:00 1,8 0,4 2 1 10 5 NE 0,0
20.01.2018 08:00:00 1,9 0,4 4 2 10 5 N 0,0
20.01.2018 07:00:00 2,6 1,1 0 0 - - NNW -
20.01.2018 06:00:00 2,5 1,1 3 2 10 5 NNE 0,0
20.01.2018 05:00:00 1,9 0,9 1 1 10 6 N 0,0
20.01.2018 04:00:00 1,8 0,9 3 1 8 4 NNW 0,0
20.01.2018 03:00:00 1,5 0,6 1 0 5 3 N 0,0
20.01.2018 02:00:00 1,3 0,4 1 0 6 3 NNW 0,0
20.01.2018 01:00:00 - - - - - - - -
20.01.2018 00:00:00 1,4 0,2 2 1 9 5 NW 0,0
19.01.2018 23:00:00 1,9 0,4 0 0 7 4 ENE 0,0
19.01.2018 22:00:00 3,3 1,3 0 0 3 1 SE 0,0
19.01.2018 21:00:00 5,0 2,3 2 1 5 3 SSE 0,0
19.01.2018 20:00:00 5,3 2,3 2 1 5 3 SSE 0,0
19.01.2018 19:00:00 6,1 2,5 1 0 4 2 SE -
19.01.2018 18:00:00 7,4 1,9 0 0 9 5 NNE 0,0
19.01.2018 17:00:00 10,4 1,7 3 2 16 9 S 0,0
19.01.2018 16:00:00 12,4 1,9 9 5 16 9 SSE 0,0
19.01.2018 15:00:00 13,3 2,3 6 3 14 8 SSE 0,0
19.01.2018 14:00:00 13,1 2,7 7 4 12 7 SSE 0,0
19.01.2018 13:00:00 10,7 3,9 0 0 7 4 S -
19.01.2018 12:00:00 7,1 3,4 2 1 9 5 SE 0,0
19.01.2018 11:00:00 3,3 2,3 1 0 6 3 NE 0,0
19.01.2018 10:00:00 0,0 -0,5 1 1 17 9 ENE 0,0
19.01.2018 09:00:00 -1,3 -1,7 1 1 12 7 NE 0,0
19.01.2018 08:00:00 -1,5 -2,0 0 0 9 5 NNE 0,0
19.01.2018 07:00:00 -1,4 -1,7 2 1 10 6 NNE -
19.01.2018 06:00:00 -1,1 -1,4 1 1 12 6 N 0,0
19.01.2018 05:00:00 -0,9 -1,2 0 0 15 8 N 0,0
19.01.2018 04:00:00 -0,7 -1,2 6 3 15 8 NNW 0,0
19.01.2018 03:00:00 -0,7 -1,2 1 1 13 7 N 0,0
19.01.2018 02:00:00 -0,3 -1,0 3 1 10 5 NNE 0,0
19.01.2018 01:00:00 -0,1 -0,7 3 1 10 5 N -
19.01.2018 00:00:00 -0,1 -1,0 1 1 8 4 NE 0,0
18.01.2018 23:00:00 0,1 -1,0 0 0 4 2 NE 0,0
18.01.2018 22:00:00 0,9 -0,5 0 0 5 3 SE 0,0
18.01.2018 21:00:00 1,5 -0,5 0 0 4 2 SSE 0,0
18.01.2018 20:00:00 2,6 0,2 0 0 3 1 NNE 0,0
18.01.2018 19:00:00 4,3 1,1 0 0 8 4 SSE -
18.01.2018 18:00:00 6,4 1,5 4 2 12 6 SE 0,0
18.01.2018 17:00:00 8,8 2,1 8 4 14 8 S 0,0
18.01.2018 16:00:00 10,8 2,1 7 4 18 10 S 0,0
18.01.2018 15:00:00 11,0 1,7 9 5 17 9 S 0,0
18.01.2018 14:00:00 10,3 1,5 13 7 19 10 S 0,0
18.01.2018 13:00:00 9,5 1,9 6 3 14 8 SSE -
18.01.2018 12:00:00 6,5 2,9 1 1 4 2 SE 0,0
18.01.2018 11:00:00 3,2 2,5 1 0 3 2 SE 0,0
18.01.2018 10:00:00 -0,5 -0,7 0 0 3 2 N 0,0
18.01.2018 09:00:00 -1,7 -2,2 0 0 3 1 SSE 0,0
18.01.2018 08:00:00 -1,8 -2,2 0 0 3 1 SE 0,0
18.01.2018 07:00:00 -1,1 -1,4 1 0 4 2 S -
18.01.2018 06:00:00 -1,4 -1,7 0 0 5 3 N 0,0
18.01.2018 05:00:00 -1,7 -2,2 0 0 1 1 SSE 0,0
18.01.2018 04:00:00 -1,3 -2,0 0 0 2 1 ESE 0,0
18.01.2018 03:00:00 -0,9 -1,7 1 1 4 2 SSE 0,0
18.01.2018 02:00:00 -0,8 -1,7 0 0 6 4 N 0,0
18.01.2018 01:00:00 0,0 -1,0 1 1 6 4 SSE -
18.01.2018 00:00:00 0,5 -0,5 2 1 5 3 NNE 0,0
17.01.2018 23:00:00 0,9 -0,5 0 0 4 2 E 0,0
17.01.2018 22:00:00 2,0 0,4 0 0 3 2 SSE 0,0
17.01.2018 21:00:00 3,1 1,1 0 0 3 1 SSE 0,0
17.01.2018 20:00:00 4,6 1,9 0 0 5 3 ESE 0,0
17.01.2018 19:00:00 6,6 2,7 0 0 7 4 N -
17.01.2018 18:00:00 9,4 4,1 3 2 13 7 SSE 0,0
17.01.2018 17:00:00 11,2 4,1 7 4 - - S 0,0
17.01.2018 16:00:00 12,1 4,3 11 6 19 10 SSE 0,0
17.01.2018 15:00:00 12,1 4,8 10 5 20 11 S 0,0
17.01.2018 14:00:00 11,6 5,0 11 6 19 10 SSE 0,0
17.01.2018 13:00:00 10,4 5,0 13 7 21 11 S -
17.01.2018 12:00:00 9,6 5,1 8 4 14 8 S 0,0
17.01.2018 11:00:00 7,3 5,1 1 1 5 3 ESE 0,0
17.01.2018 10:00:00 5,9 4,5 2 1 - - ENE 0,0
17.01.2018 09:00:00 5,2 3,8 2 1 7 4 N 0,0
17.01.2018 08:00:00 4,9 3,4 1 1 7 4 N 0,0
17.01.2018 07:00:00 4,8 3,2 3 2 7 4 NNE -
17.01.2018 06:00:00 4,7 3,2 1 1 11 6 NNE 0,0
17.01.2018 05:00:00 4,7 3,2 4 2 7 4 NE 0,0
17.01.2018 04:00:00 4,4 2,9 1 1 8 4 N 0,0
17.01.2018 03:00:00 4,1 2,7 1 1 5 3 NNE 0,0
17.01.2018 02:00:00 3,8 2,3 - - - - NE 0,0
17.01.2018 01:00:00 3,4 2,1 4 2 13 7 NE -
17.01.2018 00:00:00 3,1 1,7 3 1 9 5 NNE 0,0
16.01.2018 23:00:00 3,1 1,9 1 1 7 4 N 0,0
16.01.2018 22:00:00 2,8 1,7 2 1 5 3 NNW 0,0
16.01.2018 21:00:00 2,4 0,9 0 0 2 1 N 0,0
16.01.2018 20:00:00 3,4 1,3 0 0 1 1 N 0,0
16.01.2018 19:00:00 5,2 2,1 1 0 - - S -
16.01.2018 18:00:00 7,6 2,7 2 1 12 6 SE 0,0
16.01.2018 17:00:00 9,8 3,0 9 5 18 10 S 0,0
16.01.2018 16:00:00 11,1 2,7 11 6 19 11 S 0,0
16.01.2018 15:00:00 11,3 3,4 8 4 20 11 SSE 0,0
16.01.2018 14:00:00 10,1 3,2 9 5 20 11 S 0,0
16.01.2018 13:00:00 9,1 3,0 10 6 18 10 S -
16.01.2018 12:00:00 5,8 3,0 1 0 - - E 0,0
16.01.2018 11:00:00 2,1 1,1 2 1 11 6 NNW 0,0
16.01.2018 10:00:00 0,8 0,0 0 0 6 3 WNW 0,0
16.01.2018 09:00:00 0,7 -0,3 0 0 8 4 ENE 0,0
16.01.2018 08:00:00 0,8 -0,3 3 1 9 5 NNW 0,0
16.01.2018 07:00:00 1,0 -0,3 2 1 11 6 NNW -
16.01.2018 06:00:00 1,4 0,0 4 2 13 7 NW 0,0
16.01.2018 05:00:00 1,8 0,4 0 0 10 5 N 0,0
16.01.2018 04:00:00 2,1 0,6 - - - - E 0,0
16.01.2018 03:00:00 2,2 0,6 1 1 9 5 SW 0,0
16.01.2018 02:00:00 2,4 0,9 1 0 7 4 NW 0,0
16.01.2018 01:00:00 2,6 1,1 1 1 6 4 ESE -
16.01.2018 00:00:00 2,6 1,1 3 1 10 5 S 0,0
15.01.2018 23:00:00 2,5 1,1 6 3 11 6 SSE 0,0
15.01.2018 22:00:00 2,6 1,1 4 2 14 8 SSE 0,0
15.01.2018 21:00:00 3,0 1,3 6 4 - - S 0,0
15.01.2018 20:00:00 3,3 1,3 8 4 16 9 SSE 0,0
15.01.2018 19:00:00 3,9 1,7 8 4 16 8 SSE -
15.01.2018 18:00:00 4,4 1,7 8 4 14 8 SSE 0,0
15.01.2018 17:00:00 4,5 1,7 7 4 20 11 SSE 0,0
15.01.2018 16:00:00 5,2 1,5 11 6 28 15 S 0,0
15.01.2018 15:00:00 7,0 2,7 13 7 25 13 S 0,0
15.01.2018 14:00:00 6,9 2,5 13 7 - - S 0,0
15.01.2018 13:00:00 7,4 3,0 11 6 18 10 S -

tt = Température de l'air
td = dewpoint
ff = Vitesse du vent
fx = gusts
dd = Direction du vent
rr = Quantités de précipitations

stations d'obs. à proximité